createdAt,value
2019-02-12T00:00:04.842Z,17.57
2019-02-12T00:02:38.712Z,20.45
2019-02-12T00:05:12.632Z,12.90
2019-02-12T00:07:43.680Z,11.86
2019-02-12T00:10:14.020Z,12.57
2019-02-12T00:12:44.798Z,20.85
2019-02-12T00:15:15.080Z,14.73
2019-02-12T00:17:45.744Z,18.57
2019-02-12T00:20:16.369Z,17.20
2019-02-12T00:22:48.997Z,13.27
2019-02-12T00:25:19.308Z,18.23
2019-02-12T00:27:53.651Z,12.10
2019-02-12T00:30:24.353Z,18.07
2019-02-12T00:32:54.833Z,12.23
2019-02-12T00:35:25.110Z,22.93
2019-02-12T00:38:00.815Z,16.40
2019-02-12T00:40:31.449Z,16.90
2019-02-12T00:43:02.854Z,18.00
2019-02-12T00:45:33.471Z,22.90
2019-02-12T00:48:03.781Z,19.90
2019-02-12T00:50:38.131Z,21.20
2019-02-12T00:53:11.128Z,22.07
2019-02-12T00:55:41.979Z,22.30
2019-02-12T00:58:12.396Z,23.20
2019-02-12T01:00:43.016Z,26.47
2019-02-12T01:03:13.379Z,29.20
2019-02-12T01:05:45.073Z,19.40
2019-02-12T01:08:15.670Z,29.07
2019-02-12T01:10:46.234Z,15.90
2019-02-12T01:13:16.553Z,25.17
2019-02-12T01:15:49.178Z,22.10
2019-02-12T01:18:21.449Z,28.63
2019-02-12T01:20:58.300Z,21.90
2019-02-12T01:23:30.258Z,21.77
2019-02-12T01:26:00.994Z,24.57
2019-02-12T01:28:31.334Z,17.80
2019-02-12T01:31:01.682Z,19.70
2019-02-12T01:33:32.108Z,20.97
2019-02-12T01:36:03.470Z,21.13
2019-02-12T01:38:39.708Z,12.90
2019-02-12T01:41:12.867Z,22.55
2019-02-12T01:43:43.148Z,26.37
2019-02-12T01:46:13.427Z,19.07
2019-02-12T01:48:43.827Z,20.90
2019-02-12T01:51:15.594Z,20.16
2019-02-12T01:54:05.379Z,15.37
2019-02-12T01:56:38.551Z,18.43
2019-02-12T01:59:08.837Z,14.50
2019-02-12T02:01:39.753Z,24.77
2019-02-12T02:04:10.106Z,19.77
2019-02-12T02:06:42.084Z,15.77
2019-02-12T02:09:12.904Z,15.07
2019-02-12T02:11:48.275Z,25.30
2019-02-12T02:14:19.647Z,17.73
2019-02-12T02:16:52.001Z,29.52
2019-02-12T02:19:22.891Z,21.03
2019-02-12T02:21:53.179Z,15.23
2019-02-12T02:24:23.491Z,16.40
2019-02-12T02:26:54.144Z,22.63
2019-02-12T02:29:25.486Z,23.00
2019-02-12T02:32:00.667Z,19.83
2019-02-12T02:34:31.085Z,15.53
2019-02-12T02:37:01.677Z,18.05
2019-02-12T02:39:33.136Z,15.40
2019-02-12T02:42:04.097Z,22.93
2019-02-12T02:44:35.550Z,22.17
2019-02-12T02:47:06.139Z,27.67
2019-02-12T02:49:36.473Z,18.53
2019-02-12T02:52:07.037Z,19.60
2019-02-12T02:54:38.622Z,24.63
2019-02-12T02:57:09.152Z,23.55
2019-02-12T02:59:39.414Z,20.40
2019-02-12T03:02:10.056Z,19.47
2019-02-12T03:04:40.448Z,23.00
2019-02-12T03:07:11.289Z,22.33
2019-02-12T03:09:44.457Z,27.70
2019-02-12T03:12:16.512Z,23.70
2019-02-12T03:14:46.875Z,23.03
2019-02-12T03:17:17.163Z,22.43
2019-02-12T03:19:49.259Z,26.67
2019-02-12T03:22:23.820Z,23.70
2019-02-12T03:24:56.352Z,30.23
2019-02-12T03:27:26.636Z,30.60
2019-02-12T03:29:57.069Z,21.83
2019-02-12T03:32:27.571Z,23.87
2019-02-12T03:34:57.848Z,27.10
2019-02-12T03:37:28.301Z,19.63
2019-02-12T03:39:58.887Z,23.55
2019-02-12T03:42:29.198Z,22.03
2019-02-12T03:44:59.719Z,22.80
2019-02-12T03:47:31.640Z,25.63
2019-02-12T03:50:02.220Z,23.85
2019-02-12T03:52:32.494Z,17.93
2019-02-12T03:55:04.544Z,23.18
2019-02-12T03:57:34.843Z,22.07
2019-02-12T04:00:07.462Z,20.13
2019-02-12T04:02:43.081Z,19.50
2019-02-12T04:05:15.075Z,23.55
2019-02-12T04:07:45.379Z,34.60
2019-02-12T04:10:16.335Z,18.07
2019-02-12T04:12:49.742Z,24.47
2019-02-12T04:15:20.860Z,22.20
2019-02-12T04:17:51.388Z,22.23
2019-02-12T04:20:24.631Z,19.00
2019-02-12T04:22:54.914Z,15.65
2019-02-12T04:25:29.042Z,15.90
2019-02-12T04:27:59.617Z,21.70
2019-02-12T04:30:30.254Z,23.63
2019-02-12T04:33:00.731Z,17.03
2019-02-12T04:35:32.398Z,23.87
2019-02-12T04:38:06.882Z,27.67
2019-02-12T04:40:38.627Z,25.17
2019-02-12T04:43:09.285Z,21.17
2019-02-12T04:45:41.982Z,21.35
2019-02-12T04:48:12.241Z,18.57
2019-02-12T04:50:44.219Z,33.17
2019-02-12T04:53:14.695Z,20.03
2019-02-12T04:55:52.288Z,24.10
2019-02-12T04:58:24.223Z,26.43
2019-02-12T05:00:54.581Z,28.70
2019-02-12T05:03:26.115Z,30.17
2019-02-12T05:05:58.417Z,31.87
2019-02-12T05:08:40.866Z,35.30
2019-02-12T05:11:15.618Z,25.80
2019-02-12T05:13:47.976Z,32.67
2019-02-12T05:16:19.717Z,26.73
2019-02-12T05:18:50.212Z,27.37
2019-02-12T05:21:20.529Z,38.70
2019-02-12T05:23:53.559Z,26.37
2019-02-12T05:26:25.702Z,31.22
2019-02-12T05:28:56.013Z,24.57
2019-02-12T05:31:27.647Z,26.25
2019-02-12T05:33:58.030Z,33.90
2019-02-12T05:36:28.339Z,22.57
2019-02-12T05:38:58.862Z,30.60
2019-02-12T05:41:30.404Z,32.53
2019-02-12T05:44:03.084Z,30.07
2019-02-12T05:46:37.788Z,26.10
2019-02-12T05:49:14.584Z,29.60
2019-02-12T05:51:43.509Z,25.20
2019-02-12T05:54:14.165Z,27.23
2019-02-12T05:56:47.727Z,28.57
2019-02-12T05:59:18.392Z,35.33
2019-02-12T06:01:52.690Z,31.10
2019-02-12T06:04:23.002Z,38.13
2019-02-12T06:06:53.800Z,50.07
2019-02-12T06:09:24.097Z,54.83
2019-02-12T06:11:55.819Z,51.33
2019-02-12T06:14:28.050Z,48.70
2019-02-12T06:17:01.059Z,49.78
2019-02-12T06:19:31.679Z,49.43
2019-02-12T06:22:03.323Z,43.83
2019-02-12T06:24:35.024Z,63.87
2019-02-12T06:27:05.490Z,43.80
2019-02-12T06:29:36.121Z,42.70
2019-02-12T06:32:06.473Z,36.00
2019-02-12T06:34:36.863Z,40.10
2019-02-12T06:37:07.179Z,48.37
2019-02-12T06:39:39.223Z,29.55
2019-02-12T06:42:09.526Z,34.53
2019-02-12T06:44:40.153Z,28.67
2019-02-12T06:47:10.907Z,27.23
2019-02-12T06:49:41.286Z,28.20
2019-02-12T06:52:11.610Z,25.90
2019-02-12T06:54:43.874Z,28.73
2019-02-12T06:57:14.264Z,29.43
2019-02-12T06:59:44.648Z,32.98
2019-02-12T07:02:52.374Z,22.33
2019-02-12T07:05:22.735Z,32.37
2019-02-12T07:08:29.745Z,31.05
2019-02-12T07:11:04.751Z,25.17
2019-02-12T07:13:40.659Z,24.57
2019-02-12T07:16:27.926Z,34.57
2019-02-12T07:19:47.667Z,23.40
2019-02-12T07:23:05.291Z,34.10
2019-02-12T07:26:09.308Z,36.53
2019-02-12T07:29:09.111Z,29.77
2019-02-12T07:32:26.941Z,34.58
2019-02-12T07:35:19.856Z,20.53
2019-02-12T07:38:32.042Z,23.13
2019-02-12T07:41:38.742Z,22.43
2019-02-12T07:44:44.045Z,20.23
2019-02-12T07:47:45.769Z,25.73
2019-02-12T07:50:49.122Z,21.93
2019-02-12T07:53:53.864Z,22.07
2019-02-12T07:57:03.885Z,21.07
2019-02-12T07:59:56.562Z,22.25
2019-02-12T08:03:04.027Z,19.17
2019-02-12T08:06:12.458Z,21.07
2019-02-12T08:09:42.750Z,21.87
2019-02-12T08:12:34.747Z,18.70
2019-02-12T08:15:12.218Z,17.95
2019-02-12T08:18:21.441Z,18.40
2019-02-12T08:21:29.474Z,21.30
2019-02-12T08:24:30.341Z,15.20
2019-02-12T08:27:27.464Z,19.90
2019-02-12T08:30:38.833Z,18.03
2019-02-12T08:33:47.595Z,17.97
2019-02-12T08:37:15.744Z,18.90
2019-02-12T08:40:15.690Z,14.97
2019-02-12T08:43:16.348Z,18.00
2019-02-12T08:46:36.557Z,19.17
2019-02-12T08:49:32.330Z,16.97
2019-02-12T08:52:51.280Z,16.07
2019-02-12T08:55:50.132Z,16.57
2019-02-12T08:58:50.224Z,18.13
2019-02-12T09:02:10.560Z,18.70
2019-02-12T09:05:25.115Z,16.90
2019-02-12T09:08:27.899Z,19.35
2019-02-12T09:11:39.722Z,21.43
2019-02-12T09:14:20.948Z,24.70
2019-02-12T09:17:35.515Z,20.06
2019-02-12T09:20:29.961Z,25.25
2019-02-12T09:24:03.265Z,25.73
2019-02-12T09:27:14.253Z,36.97
2019-02-12T09:29:57.668Z,20.67
2019-02-12T09:33:07.928Z,26.17
2019-02-12T09:36:08.820Z,22.43
2019-02-12T09:39:20.169Z,18.37
2019-02-12T09:42:06.114Z,24.07
2019-02-12T09:45:06.406Z,15.83
2019-02-12T09:47:53.375Z,17.70
2019-02-12T09:51:05.065Z,18.95
2019-02-12T09:54:11.415Z,17.62
2019-02-12T09:57:01.001Z,21.30
2019-02-12T10:00:03.408Z,21.25
2019-02-12T10:03:15.978Z,16.87
2019-02-12T10:05:59.101Z,16.23
2019-02-12T10:09:06.414Z,17.50
2019-02-12T10:11:58.469Z,19.42
2019-02-12T10:15:00.438Z,20.15
2019-02-12T10:18:05.743Z,17.53
2019-02-12T10:21:26.981Z,20.93
2019-02-12T10:24:20.281Z,16.73
2019-02-12T10:27:18.885Z,19.38
2019-02-12T10:30:18.335Z,18.32
2019-02-12T10:32:58.096Z,19.27
2019-02-12T10:35:33.773Z,20.03
2019-02-12T10:38:07.777Z,15.50
2019-02-12T10:40:44.684Z,20.80
2019-02-12T10:43:11.871Z,21.05
2019-02-12T10:45:42.331Z,19.80
2019-02-12T10:48:15.029Z,19.90
2019-02-12T10:50:47.182Z,15.90
2019-02-12T10:53:27.518Z,17.50
2019-02-12T10:55:59.474Z,18.07
2019-02-12T10:58:31.529Z,18.33
2019-02-12T11:01:01.834Z,21.23
2019-02-12T11:03:33.730Z,17.70
2019-02-12T11:06:04.011Z,22.20
2019-02-12T11:08:34.595Z,18.37
2019-02-12T11:11:04.887Z,19.50
2019-02-12T11:13:35.705Z,20.60
2019-02-12T11:16:08.139Z,16.90
2019-02-12T11:18:43.428Z,19.57
2019-02-12T11:21:13.747Z,22.33
2019-02-12T11:23:44.338Z,21.30
2019-02-12T11:26:14.664Z,22.60
2019-02-12T11:29:06.938Z,17.00
2019-02-12T11:31:27.766Z,19.27
2019-02-12T11:33:58.261Z,18.33
2019-02-12T11:36:30.131Z,15.50
2019-02-12T11:39:03.519Z,17.00
2019-02-12T11:41:36.158Z,17.20
2019-02-12T11:44:08.330Z,17.90
2019-02-12T11:46:38.776Z,16.43
2019-02-12T11:49:09.109Z,18.10
2019-02-12T11:51:39.897Z,20.63
2019-02-12T11:54:10.248Z,17.57
2019-02-12T11:56:40.753Z,18.10
2019-02-12T11:59:11.353Z,22.07
2019-02-12T12:01:43.849Z,22.93
2019-02-12T12:04:18.123Z,16.40
2019-02-12T12:06:51.910Z,18.30
2019-02-12T12:09:22.229Z,17.13
2019-02-12T12:11:52.835Z,19.97
2019-02-12T12:14:23.193Z,18.17
2019-02-12T12:16:54.873Z,21.73
2019-02-12T12:19:47.947Z,18.37
2019-02-12T12:22:21.192Z,16.93
2019-02-12T12:25:10.614Z,18.47
2019-02-12T12:27:36.984Z,17.84
2019-02-12T12:30:08.549Z,21.20
2019-02-12T12:32:40.249Z,18.87
2019-02-12T12:35:10.980Z,19.87
2019-02-12T12:37:44.403Z,17.43
2019-02-12T12:40:14.729Z,18.07
2019-02-12T12:42:54.277Z,19.40
2019-02-12T12:45:24.579Z,19.83
2019-02-12T12:47:55.387Z,18.27
2019-02-12T12:50:27.415Z,16.30
2019-02-12T12:52:57.988Z,24.24
2019-02-12T12:55:28.435Z,19.30
2019-02-12T12:58:00.697Z,17.67
2019-02-12T13:00:31.285Z,17.07
2019-02-12T13:03:05.151Z,18.00
2019-02-12T13:05:39.313Z,21.33
2019-02-12T13:08:09.891Z,23.47
2019-02-12T13:10:40.467Z,20.67
2019-02-12T13:13:10.866Z,23.13
2019-02-12T13:15:42.615Z,20.90
2019-02-12T13:18:13.258Z,24.27
2019-02-12T13:20:43.614Z,18.50
2019-02-12T13:23:14.021Z,17.63
2019-02-12T13:25:44.451Z,20.10
2019-02-12T13:28:14.814Z,13.43
2019-02-12T13:30:45.148Z,20.87
2019-02-12T13:33:15.503Z,14.70
2019-02-12T13:35:47.775Z,19.87
2019-02-12T13:38:18.431Z,15.30
2019-02-12T13:40:48.729Z,16.87
2019-02-12T13:43:25.352Z,16.50
2019-02-12T13:45:58.294Z,12.20
2019-02-12T13:48:29.396Z,13.70
2019-02-12T13:51:00.430Z,15.50
2019-02-12T13:53:30.719Z,17.43
2019-02-12T13:56:02.405Z,13.33
2019-02-12T13:58:38.596Z,15.70
2019-02-12T14:01:08.862Z,16.87
2019-02-12T14:03:40.220Z,13.43
2019-02-12T14:06:10.676Z,16.67
2019-02-12T14:08:42.399Z,19.60
2019-02-12T14:11:13.040Z,14.27
2019-02-12T14:13:43.403Z,14.57
2019-02-12T14:16:15.611Z,17.47
2019-02-12T14:18:47.419Z,14.53
2019-02-12T14:21:17.727Z,16.50
2019-02-12T14:23:48.164Z,15.57
2019-02-12T14:26:33.810Z,16.60
2019-02-12T14:28:56.699Z,15.20
2019-02-12T14:31:27.179Z,13.18
2019-02-12T14:34:02.828Z,18.40
2019-02-12T14:36:35.064Z,19.27
2019-02-12T14:39:06.189Z,15.33
2019-02-12T14:41:37.337Z,22.40
2019-02-12T14:44:07.668Z,15.73
2019-02-12T14:46:38.138Z,16.00
2019-02-12T14:49:08.863Z,15.77
2019-02-12T14:51:39.243Z,16.73
2019-02-12T14:54:12.061Z,15.30
2019-02-12T14:56:42.868Z,16.60
2019-02-12T14:59:13.437Z,13.77
2019-02-12T15:01:45.630Z,18.02
2019-02-12T15:04:16.285Z,19.37
2019-02-12T15:07:01.877Z,24.93
2019-02-12T15:09:18.956Z,16.73
2019-02-12T15:11:53.219Z,17.07
2019-02-12T15:14:24.652Z,20.17
2019-02-12T15:16:56.334Z,16.53
2019-02-12T15:19:26.671Z,18.40
2019-02-12T15:21:58.486Z,18.53
2019-02-12T15:24:29.361Z,15.85
2019-02-12T15:26:59.711Z,18.37
2019-02-12T15:29:32.465Z,14.90
2019-02-12T15:32:05.767Z,19.00
2019-02-12T15:34:37.421Z,17.40
2019-02-12T15:37:07.764Z,16.53
2019-02-12T15:39:38.081Z,17.17
2019-02-12T15:42:08.440Z,20.57
2019-02-12T15:44:43.790Z,19.57
2019-02-12T15:47:11.055Z,17.60
2019-02-12T15:49:43.312Z,17.85
2019-02-12T15:52:15.641Z,16.13
2019-02-12T15:54:46.120Z,19.67
2019-02-12T15:57:17.638Z,18.57
2019-02-12T15:59:48.263Z,25.90
2019-02-12T16:02:23.825Z,16.67
2019-02-12T16:04:52.199Z,15.63
2019-02-12T16:07:24.252Z,21.30
2019-02-12T16:09:56.919Z,18.02
2019-02-12T16:12:29.877Z,16.12
2019-02-12T16:15:01.722Z,21.85
2019-02-12T16:17:39.298Z,16.17
2019-02-12T16:20:10.184Z,18.00
2019-02-12T16:22:40.813Z,16.87
2019-02-12T16:25:11.440Z,16.40
2019-02-12T16:27:44.714Z,17.03
2019-02-12T16:30:21.575Z,14.50
2019-02-12T16:32:56.140Z,18.50
2019-02-12T16:35:26.743Z,19.00
2019-02-12T16:37:57.257Z,20.60
2019-02-12T16:40:27.837Z,18.53
2019-02-12T16:42:58.166Z,22.87
2019-02-12T16:45:31.939Z,18.87
2019-02-12T16:48:02.446Z,18.07
2019-02-12T16:50:33.036Z,17.32
2019-02-12T16:53:03.641Z,18.80
2019-02-12T16:55:37.054Z,21.00
2019-02-12T16:58:07.738Z,22.83
2019-02-12T17:00:38.499Z,20.25
2019-02-12T17:03:10.528Z,20.03
2019-02-12T17:05:43.962Z,25.32
2019-02-12T17:08:14.481Z,24.47
2019-02-12T17:10:50.954Z,23.00
2019-02-12T17:13:21.030Z,24.23
2019-02-12T17:15:51.701Z,24.72
2019-02-12T17:18:23.351Z,23.33
2019-02-12T17:20:54.257Z,25.75
2019-02-12T17:23:24.751Z,25.10
2019-02-12T17:25:56.559Z,22.37
2019-02-12T17:28:28.559Z,23.70
2019-02-12T17:31:02.013Z,22.67
2019-02-12T17:33:33.993Z,24.30
2019-02-12T17:36:04.805Z,28.07
2019-02-12T17:38:37.086Z,22.87
2019-02-12T17:41:08.253Z,21.10
2019-02-12T17:43:38.854Z,22.07
2019-02-12T17:46:11.303Z,26.47
2019-02-12T17:48:42.673Z,25.57
2019-02-12T17:51:13.067Z,24.57
2019-02-12T17:53:47.577Z,25.00
2019-02-12T17:56:24.738Z,27.27
2019-02-12T17:58:53.250Z,25.87
2019-02-12T18:01:24.016Z,25.23
2019-02-12T18:03:54.750Z,25.07
2019-02-12T18:06:27.715Z,26.54
2019-02-12T18:08:58.379Z,24.30
2019-02-12T18:11:30.869Z,20.23
2019-02-12T18:14:03.182Z,22.10
2019-02-12T18:16:37.502Z,24.07
2019-02-12T18:19:08.662Z,24.40
2019-02-12T18:21:42.219Z,25.25
2019-02-12T18:24:12.710Z,23.97
2019-02-12T18:26:44.278Z,23.90
2019-02-12T18:29:14.756Z,23.07
2019-02-12T18:31:48.425Z,23.73
2019-02-12T18:34:18.998Z,23.10
2019-02-12T18:36:51.290Z,28.77
2019-02-12T18:39:21.904Z,24.37
2019-02-12T18:41:52.766Z,24.95
2019-02-12T18:44:27.678Z,27.60
2019-02-12T18:46:59.741Z,23.90
2019-02-12T18:49:30.096Z,22.97
2019-02-12T18:52:00.799Z,24.83
2019-02-12T18:54:31.484Z,25.67
2019-02-12T18:57:03.224Z,25.77
2019-02-12T18:59:33.602Z,25.80
2019-02-12T19:02:08.287Z,30.77
2019-02-12T19:04:39.818Z,24.53
2019-02-12T19:07:11.258Z,23.87
2019-02-12T19:09:41.593Z,26.93
2019-02-12T19:12:12.097Z,29.00
2019-02-12T19:14:45.000Z,25.27
2019-02-12T19:17:14.757Z,22.47
2019-02-12T19:19:45.158Z,23.57
2019-02-12T19:22:15.508Z,27.20
2019-02-12T19:24:45.830Z,23.77
2019-02-12T19:27:18.626Z,23.47
2019-02-12T19:29:49.352Z,23.00
2019-02-12T19:32:20.141Z,24.17
2019-02-12T19:34:50.515Z,26.13
2019-02-12T19:37:21.067Z,27.10
2019-02-12T19:39:51.625Z,26.03
2019-02-12T19:42:22.193Z,20.70
2019-02-12T19:44:59.324Z,23.10
2019-02-12T19:47:26.540Z,23.13
2019-02-12T19:49:58.155Z,31.65
2019-02-12T19:52:28.469Z,23.23
2019-02-12T19:55:04.501Z,25.24
2019-02-12T19:57:34.977Z,23.77
2019-02-12T20:00:09.890Z,23.36
2019-02-12T20:02:40.338Z,24.50
2019-02-12T20:05:11.381Z,22.57
2019-02-12T20:07:44.066Z,22.90
2019-02-12T20:10:18.795Z,27.30
2019-02-12T20:12:49.144Z,26.40
2019-02-12T20:15:29.920Z,25.12
2019-02-12T20:17:59.356Z,24.40
2019-02-12T20:20:29.676Z,24.40
2019-02-12T20:23:00.328Z,27.13
2019-02-12T20:25:32.128Z,26.97
2019-02-12T20:28:09.007Z,23.80
2019-02-12T20:30:45.334Z,27.95
2019-02-12T20:33:17.139Z,24.63
2019-02-12T20:35:47.629Z,22.90
2019-02-12T20:38:18.053Z,24.70
2019-02-12T20:40:52.047Z,22.73
2019-02-12T20:43:22.850Z,25.93
2019-02-12T20:45:53.535Z,26.10
2019-02-12T20:48:25.548Z,25.47
2019-02-12T20:50:56.198Z,26.37
2019-02-12T20:53:26.640Z,25.20
2019-02-12T20:55:57.958Z,25.00
2019-02-12T20:58:31.697Z,28.13
2019-02-12T21:01:04.304Z,25.68
2019-02-12T21:03:34.728Z,27.80
2019-02-12T21:06:05.438Z,24.73
2019-02-12T21:08:36.120Z,26.00
2019-02-12T21:11:06.615Z,26.93
2019-02-12T21:13:37.431Z,24.85
2019-02-12T21:16:08.453Z,24.23
2019-02-12T21:18:39.225Z,22.37
2019-02-12T21:21:12.700Z,21.93
2019-02-12T21:23:43.534Z,25.60
2019-02-12T21:26:19.829Z,25.53
2019-02-12T21:28:50.279Z,23.87
2019-02-12T21:31:20.789Z,23.63
2019-02-12T21:33:51.876Z,24.40
2019-02-12T21:36:22.236Z,24.53
2019-02-12T21:38:58.633Z,24.10
2019-02-12T21:41:32.129Z,23.93
2019-02-12T21:44:04.757Z,25.10
2019-02-12T21:46:36.941Z,27.03
2019-02-12T21:49:07.526Z,20.07
2019-02-12T21:51:38.196Z,24.13
2019-02-12T21:54:08.644Z,22.77
2019-02-12T21:56:40.265Z,21.90
2019-02-12T21:59:13.026Z,23.20
2019-02-12T22:01:44.744Z,25.83
2019-02-12T22:04:15.184Z,24.30
2019-02-12T22:06:45.522Z,21.23
2019-02-12T22:09:17.213Z,18.52
2019-02-12T22:11:47.733Z,20.57
2019-02-12T22:14:18.084Z,21.35
2019-02-12T22:16:48.543Z,21.00
2019-02-12T22:19:19.221Z,20.08
2019-02-12T22:21:51.165Z,19.97
2019-02-12T22:24:24.924Z,19.80
2019-02-12T22:26:56.896Z,20.50
2019-02-12T22:29:27.547Z,22.77
2019-02-12T22:32:00.482Z,18.83
2019-02-12T22:34:30.461Z,21.57
2019-02-12T22:37:03.015Z,21.13
2019-02-12T22:39:33.348Z,21.30
2019-02-12T22:42:03.962Z,22.33
2019-02-12T22:44:35.933Z,24.07
2019-02-12T22:47:07.306Z,20.47
2019-02-12T22:49:40.523Z,21.84
2019-02-12T22:52:10.969Z,20.90
2019-02-12T22:54:41.356Z,22.53
2019-02-12T22:57:11.676Z,25.97
2019-02-12T22:59:42.191Z,23.53
2019-02-12T23:02:12.902Z,21.20
2019-02-12T23:04:44.885Z,21.42
2019-02-12T23:07:20.871Z,22.90
2019-02-12T23:09:53.019Z,23.77
2019-02-12T23:12:24.123Z,23.67
2019-02-12T23:14:54.416Z,20.43
2019-02-12T23:17:24.710Z,24.27
2019-02-12T23:19:58.640Z,25.77
2019-02-12T23:22:30.829Z,23.83
2019-02-12T23:25:01.325Z,21.83
2019-02-12T23:27:31.837Z,25.30
2019-02-12T23:30:02.547Z,25.20
2019-02-12T23:32:34.589Z,24.30
2019-02-12T23:35:07.064Z,27.45
2019-02-12T23:37:37.708Z,27.27
2019-02-12T23:40:08.592Z,27.33
2019-02-12T23:42:38.972Z,25.57
2019-02-12T23:45:09.632Z,23.57
2019-02-12T23:47:41.638Z,24.83
2019-02-12T23:50:12.351Z,23.22
2019-02-12T23:52:42.754Z,27.10
2019-02-12T23:55:15.976Z,26.80
2019-02-12T23:57:47.756Z,27.63
